sensor_id;sensor_type;location;lat;lon;timestamp;temperature;humidity
21335;DHT22;10826;52.536;13.432;2022-07-18T00:00:07;22.30;38.40
21335;DHT22;10826;52.536;13.432;2022-07-18T00:02:34;22.30;38.20
21335;DHT22;10826;52.536;13.432;2022-07-18T00:05:00;22.40;37.80
21335;DHT22;10826;52.536;13.432;2022-07-18T00:07:27;22.40;37.50
21335;DHT22;10826;52.536;13.432;2022-07-18T00:09:53;22.40;37.60
21335;DHT22;10826;52.536;13.432;2022-07-18T00:12:19;22.40;37.30
21335;DHT22;10826;52.536;13.432;2022-07-18T00:14:45;22.40;37.00
21335;DHT22;10826;52.536;13.432;2022-07-18T00:17:11;22.40;36.90
21335;DHT22;10826;52.536;13.432;2022-07-18T00:19:40;22.40;36.80
21335;DHT22;10826;52.536;13.432;2022-07-18T00:22:07;22.40;36.70
21335;DHT22;10826;52.536;13.432;2022-07-18T00:24:34;22.40;36.60
21335;DHT22;10826;52.536;13.432;2022-07-18T00:27:00;22.40;36.50
21335;DHT22;10826;52.536;13.432;2022-07-18T00:29:28;22.40;36.40
21335;DHT22;10826;52.536;13.432;2022-07-18T00:31:54;22.50;36.40
21335;DHT22;10826;52.536;13.432;2022-07-18T00:34:20;22.50;36.50
21335;DHT22;10826;52.536;13.432;2022-07-18T00:36:46;22.40;36.40
21335;DHT22;10826;52.536;13.432;2022-07-18T00:39:12;22.40;36.20
21335;DHT22;10826;52.536;13.432;2022-07-18T00:41:48;22.50;36.40
21335;DHT22;10826;52.536;13.432;2022-07-18T00:44:19;22.40;36.10
21335;DHT22;10826;52.536;13.432;2022-07-18T00:46:52;22.40;36.40
21335;DHT22;10826;52.536;13.432;2022-07-18T00:49:21;22.40;36.40
21335;DHT22;10826;52.536;13.432;2022-07-18T00:51:48;22.40;36.10
21335;DHT22;10826;52.536;13.432;2022-07-18T00:54:14;22.40;36.00
21335;DHT22;10826;52.536;13.432;2022-07-18T00:56:42;22.40;36.00
21335;DHT22;10826;52.536;13.432;2022-07-18T00:59:11;22.40;35.90
21335;DHT22;10826;52.536;13.432;2022-07-18T01:01:38;22.40;35.90
21335;DHT22;10826;52.536;13.432;2022-07-18T01:04:16;22.40;36.20
21335;DHT22;10826;52.536;13.432;2022-07-18T01:06:49;22.40;36.10
21335;DHT22;10826;52.536;13.432;2022-07-18T01:09:18;22.40;36.10
21335;DHT22;10826;52.536;13.432;2022-07-18T01:11:47;22.30;36.30
21335;DHT22;10826;52.536;13.432;2022-07-18T01:14:15;22.40;36.30
21335;DHT22;10826;52.536;13.432;2022-07-18T01:16:41;22.30;36.30
21335;DHT22;10826;52.536;13.432;2022-07-18T01:19:09;22.30;36.30
21335;DHT22;10826;52.536;13.432;2022-07-18T01:21:37;22.30;36.40
21335;DHT22;10826;52.536;13.432;2022-07-18T01:24:06;22.30;36.50
21335;DHT22;10826;52.536;13.432;2022-07-18T01:26:33;22.30;36.60
21335;DHT22;10826;52.536;13.432;2022-07-18T01:29:02;22.30;36.50
21335;DHT22;10826;52.536;13.432;2022-07-18T01:31:29;22.30;36.50
21335;DHT22;10826;52.536;13.432;2022-07-18T01:33:59;22.30;36.60
21335;DHT22;10826;52.536;13.432;2022-07-18T01:36:26;22.20;36.50
21335;DHT22;10826;52.536;13.432;2022-07-18T01:38:53;22.20;36.70
21335;DHT22;10826;52.536;13.432;2022-07-18T01:41:20;22.20;36.70
21335;DHT22;10826;52.536;13.432;2022-07-18T01:43:46;22.20;36.80
21335;DHT22;10826;52.536;13.432;2022-07-18T01:46:12;22.20;37.10
21335;DHT22;10826;52.536;13.432;2022-07-18T01:48:39;22.10;37.00
21335;DHT22;10826;52.536;13.432;2022-07-18T01:51:08;22.10;37.00
21335;DHT22;10826;52.536;13.432;2022-07-18T01:53:38;22.10;37.10
21335;DHT22;10826;52.536;13.432;2022-07-18T01:56:06;22.10;37.10
21335;DHT22;10826;52.536;13.432;2022-07-18T01:58:33;22.10;37.20
21335;DHT22;10826;52.536;13.432;2022-07-18T02:00:59;22.10;37.10
21335;DHT22;10826;52.536;13.432;2022-07-18T02:03:25;22.10;37.20
21335;DHT22;10826;52.536;13.432;2022-07-18T02:05:52;22.00;37.20
21335;DHT22;10826;52.536;13.432;2022-07-18T02:08:18;22.00;37.20
21335;DHT22;10826;52.536;13.432;2022-07-18T02:10:44;22.00;37.40
21335;DHT22;10826;52.536;13.432;2022-07-18T02:13:10;22.00;37.50
21335;DHT22;10826;52.536;13.432;2022-07-18T02:15:36;21.90;37.50
21335;DHT22;10826;52.536;13.432;2022-07-18T02:18:06;21.90;37.50
21335;DHT22;10826;52.536;13.432;2022-07-18T02:20:32;21.80;37.50
21335;DHT22;10826;52.536;13.432;2022-07-18T02:23:02;21.80;37.70
21335;DHT22;10826;52.536;13.432;2022-07-18T02:25:28;21.80;37.80
21335;DHT22;10826;52.536;13.432;2022-07-18T02:27:54;21.80;37.80
21335;DHT22;10826;52.536;13.432;2022-07-18T02:30:24;21.70;37.90
21335;DHT22;10826;52.536;13.432;2022-07-18T02:32:53;21.70;37.90
21335;DHT22;10826;52.536;13.432;2022-07-18T02:35:20;21.60;37.90
21335;DHT22;10826;52.536;13.432;2022-07-18T02:37:46;21.60;38.10
21335;DHT22;10826;52.536;13.432;2022-07-18T02:40:13;21.60;38.30
21335;DHT22;10826;52.536;13.432;2022-07-18T02:42:42;21.60;38.20
21335;DHT22;10826;52.536;13.432;2022-07-18T02:45:09;21.60;38.20
21335;DHT22;10826;52.536;13.432;2022-07-18T02:47:35;21.50;38.40
21335;DHT22;10826;52.536;13.432;2022-07-18T02:50:02;21.50;38.60
21335;DHT22;10826;52.536;13.432;2022-07-18T02:52:28;21.50;38.50
21335;DHT22;10826;52.536;13.432;2022-07-18T02:54:54;21.40;38.40
21335;DHT22;10826;52.536;13.432;2022-07-18T02:57:22;21.40;38.60
21335;DHT22;10826;52.536;13.432;2022-07-18T02:59:49;21.40;38.80
21335;DHT22;10826;52.536;13.432;2022-07-18T03:02:15;21.40;38.90
21335;DHT22;10826;52.536;13.432;2022-07-18T03:04:41;21.30;39.00
21335;DHT22;10826;52.536;13.432;2022-07-18T03:07:07;21.30;39.00
21335;DHT22;10826;52.536;13.432;2022-07-18T03:09:33;21.30;39.20
21335;DHT22;10826;52.536;13.432;2022-07-18T03:11:58;21.20;39.10
21335;DHT22;10826;52.536;13.432;2022-07-18T03:14:24;21.20;39.10
21335;DHT22;10826;52.536;13.432;2022-07-18T03:16:51;21.20;39.20
21335;DHT22;10826;52.536;13.432;2022-07-18T03:19:17;21.10;39.30
21335;DHT22;10826;52.536;13.432;2022-07-18T03:21:43;21.20;39.40
21335;DHT22;10826;52.536;13.432;2022-07-18T03:24:09;21.10;39.50
21335;DHT22;10826;52.536;13.432;2022-07-18T03:26:37;21.10;39.60
21335;DHT22;10826;52.536;13.432;2022-07-18T03:29:03;21.10;39.60
21335;DHT22;10826;52.536;13.432;2022-07-18T03:31:29;21.00;39.50
21335;DHT22;10826;52.536;13.432;2022-07-18T03:33:55;21.00;39.60
21335;DHT22;10826;52.536;13.432;2022-07-18T03:36:21;21.00;39.90
21335;DHT22;10826;52.536;13.432;2022-07-18T03:38:47;21.00;40.70
21335;DHT22;10826;52.536;13.432;2022-07-18T03:41:13;21.00;40.00
21335;DHT22;10826;52.536;13.432;2022-07-18T03:43:40;20.90;40.10
21335;DHT22;10826;52.536;13.432;2022-07-18T03:46:06;20.90;40.20
21335;DHT22;10826;52.536;13.432;2022-07-18T03:48:33;20.90;40.30
21335;DHT22;10826;52.536;13.432;2022-07-18T03:51:01;20.90;40.30
21335;DHT22;10826;52.536;13.432;2022-07-18T03:53:28;20.90;40.40
21335;DHT22;10826;52.536;13.432;2022-07-18T03:55:55;20.90;40.40
21335;DHT22;10826;52.536;13.432;2022-07-18T03:58:21;20.90;40.60
21335;DHT22;10826;52.536;13.432;2022-07-18T04:00:47;20.90;40.50
21335;DHT22;10826;52.536;13.432;2022-07-18T04:03:14;20.90;40.60
21335;DHT22;10826;52.536;13.432;2022-07-18T04:05:40;20.90;40.80
21335;DHT22;10826;52.536;13.432;2022-07-18T04:08:06;20.80;40.80
21335;DHT22;10826;52.536;13.432;2022-07-18T04:10:32;20.80;40.90
21335;DHT22;10826;52.536;13.432;2022-07-18T04:12:58;20.80;41.00
21335;DHT22;10826;52.536;13.432;2022-07-18T04:15:26;20.90;41.20
21335;DHT22;10826;52.536;13.432;2022-07-18T04:17:53;20.90;41.30
21335;DHT22;10826;52.536;13.432;2022-07-18T04:20:20;20.90;41.30
21335;DHT22;10826;52.536;13.432;2022-07-18T04:22:49;20.90;41.30
21335;DHT22;10826;52.536;13.432;2022-07-18T04:25:21;20.80;41.20
21335;DHT22;10826;52.536;13.432;2022-07-18T04:27:49;20.80;41.20
21335;DHT22;10826;52.536;13.432;2022-07-18T04:30:17;20.90;41.50
21335;DHT22;10826;52.536;13.432;2022-07-18T04:32:44;20.90;41.60
21335;DHT22;10826;52.536;13.432;2022-07-18T04:35:11;20.90;41.60
21335;DHT22;10826;52.536;13.432;2022-07-18T04:37:38;20.90;41.50
21335;DHT22;10826;52.536;13.432;2022-07-18T04:40:06;20.90;41.50
21335;DHT22;10826;52.536;13.432;2022-07-18T04:42:34;20.90;41.40
21335;DHT22;10826;52.536;13.432;2022-07-18T04:45:00;20.90;41.30
21335;DHT22;10826;52.536;13.432;2022-07-18T04:47:27;20.90;41.30
21335;DHT22;10826;52.536;13.432;2022-07-18T04:49:54;21.00;41.20
21335;DHT22;10826;52.536;13.432;2022-07-18T04:52:20;20.90;41.10
21335;DHT22;10826;52.536;13.432;2022-07-18T04:54:46;20.90;41.20
21335;DHT22;10826;52.536;13.432;2022-07-18T04:57:12;21.00;41.10
21335;DHT22;10826;52.536;13.432;2022-07-18T04:59:41;21.00;41.10
21335;DHT22;10826;52.536;13.432;2022-07-18T05:02:08;21.00;41.20
21335;DHT22;10826;52.536;13.432;2022-07-18T05:04:35;21.00;41.10
21335;DHT22;10826;52.536;13.432;2022-07-18T05:07:03;21.00;41.10
21335;DHT22;10826;52.536;13.432;2022-07-18T05:09:29;21.10;41.20
21335;DHT22;10826;52.536;13.432;2022-07-18T05:11:56;21.10;41.00
21335;DHT22;10826;52.536;13.432;2022-07-18T05:14:22;21.10;40.90
21335;DHT22;10826;52.536;13.432;2022-07-18T05:16:48;21.10;40.80
21335;DHT22;10826;52.536;13.432;2022-07-18T05:19:15;21.20;40.80
21335;DHT22;10826;52.536;13.432;2022-07-18T05:21:44;21.20;40.70
21335;DHT22;10826;52.536;13.432;2022-07-18T05:24:11;21.30;40.60
21335;DHT22;10826;52.536;13.432;2022-07-18T05:26:37;21.30;40.40
21335;DHT22;10826;52.536;13.432;2022-07-18T05:29:03;21.40;40.60
21335;DHT22;10826;52.536;13.432;2022-07-18T05:31:30;21.50;40.20
21335;DHT22;10826;52.536;13.432;2022-07-18T05:33:56;21.60;40.00
21335;DHT22;10826;52.536;13.432;2022-07-18T05:36:22;21.70;39.90
21335;DHT22;10826;52.536;13.432;2022-07-18T05:38:48;21.80;39.70
21335;DHT22;10826;52.536;13.432;2022-07-18T05:41:14;21.90;39.80
21335;DHT22;10826;52.536;13.432;2022-07-18T05:43:40;22.00;39.70
21335;DHT22;10826;52.536;13.432;2022-07-18T05:46:06;22.10;39.60
21335;DHT22;10826;52.536;13.432;2022-07-18T05:48:33;22.20;39.50
21335;DHT22;10826;52.536;13.432;2022-07-18T05:50:59;22.30;39.40
21335;DHT22;10826;52.536;13.432;2022-07-18T05:53:25;22.40;39.10
21335;DHT22;10826;52.536;13.432;2022-07-18T05:55:51;22.50;38.90
21335;DHT22;10826;52.536;13.432;2022-07-18T05:58:17;22.60;38.70
21335;DHT22;10826;52.536;13.432;2022-07-18T06:00:43;22.70;38.70
21335;DHT22;10826;52.536;13.432;2022-07-18T06:03:08;22.90;38.60
21335;DHT22;10826;52.536;13.432;2022-07-18T06:05:35;23.00;38.30
21335;DHT22;10826;52.536;13.432;2022-07-18T06:08:01;23.00;38.20
21335;DHT22;10826;52.536;13.432;2022-07-18T06:10:27;23.10;38.20
21335;DHT22;10826;52.536;13.432;2022-07-18T06:12:53;23.20;38.00
21335;DHT22;10826;52.536;13.432;2022-07-18T06:15:20;23.30;37.70
21335;DHT22;10826;52.536;13.432;2022-07-18T06:17:46;23.40;37.60
21335;DHT22;10826;52.536;13.432;2022-07-18T06:20:12;23.50;37.60
21335;DHT22;10826;52.536;13.432;2022-07-18T06:22:38;23.50;37.50
21335;DHT22;10826;52.536;13.432;2022-07-18T06:25:05;23.70;37.50
21335;DHT22;10826;52.536;13.432;2022-07-18T06:27:32;23.70;37.30
21335;DHT22;10826;52.536;13.432;2022-07-18T06:29:58;23.90;37.40
21335;DHT22;10826;52.536;13.432;2022-07-18T06:32:25;24.00;37.30
21335;DHT22;10826;52.536;13.432;2022-07-18T06:34:51;24.10;37.30
21335;DHT22;10826;52.536;13.432;2022-07-18T06:37:17;24.20;37.40
21335;DHT22;10826;52.536;13.432;2022-07-18T06:39:43;24.30;37.00
21335;DHT22;10826;52.536;13.432;2022-07-18T06:42:09;24.40;36.70
21335;DHT22;10826;52.536;13.432;2022-07-18T06:44:35;24.50;36.60
21335;DHT22;10826;52.536;13.432;2022-07-18T06:47:01;24.50;36.80
21335;DHT22;10826;52.536;13.432;2022-07-18T06:49:27;24.60;37.10
21335;DHT22;10826;52.536;13.432;2022-07-18T06:51:55;24.70;37.10
21335;DHT22;10826;52.536;13.432;2022-07-18T06:54:22;24.70;36.90
21335;DHT22;10826;52.536;13.432;2022-07-18T06:56:56;24.70;36.50
21335;DHT22;10826;52.536;13.432;2022-07-18T06:59:23;24.80;36.70
21335;DHT22;10826;52.536;13.432;2022-07-18T07:01:49;24.80;36.70
21335;DHT22;10826;52.536;13.432;2022-07-18T07:04:15;24.80;36.40
21335;DHT22;10826;52.536;13.432;2022-07-18T07:06:41;24.90;36.50
21335;DHT22;10826;52.536;13.432;2022-07-18T07:09:07;24.90;36.20
21335;DHT22;10826;52.536;13.432;2022-07-18T07:11:33;25.00;35.70
21335;DHT22;10826;52.536;13.432;2022-07-18T07:13:59;25.00;35.70
21335;DHT22;10826;52.536;13.432;2022-07-18T07:16:26;25.00;35.70
21335;DHT22;10826;52.536;13.432;2022-07-18T07:18:51;25.00;35.50
21335;DHT22;10826;52.536;13.432;2022-07-18T07:21:17;25.10;35.40
21335;DHT22;10826;52.536;13.432;2022-07-18T07:23:43;25.10;35.10
21335;DHT22;10826;52.536;13.432;2022-07-18T07:26:09;25.10;35.10
21335;DHT22;10826;52.536;13.432;2022-07-18T07:28:35;25.10;34.90
21335;DHT22;10826;52.536;13.432;2022-07-18T07:31:02;25.20;35.20
21335;DHT22;10826;52.536;13.432;2022-07-18T07:33:28;25.20;34.80
21335;DHT22;10826;52.536;13.432;2022-07-18T07:35:54;25.20;34.80
21335;DHT22;10826;52.536;13.432;2022-07-18T07:38:20;25.30;34.50
21335;DHT22;10826;52.536;13.432;2022-07-18T07:40:49;25.30;34.50
21335;DHT22;10826;52.536;13.432;2022-07-18T07:43:16;25.30;35.00
21335;DHT22;10826;52.536;13.432;2022-07-18T07:45:45;25.30;34.80
21335;DHT22;10826;52.536;13.432;2022-07-18T07:48:12;25.30;34.70
21335;DHT22;10826;52.536;13.432;2022-07-18T07:50:38;25.30;34.90
21335;DHT22;10826;52.536;13.432;2022-07-18T07:53:04;25.30;35.00
21335;DHT22;10826;52.536;13.432;2022-07-18T07:55:31;25.40;34.40
21335;DHT22;10826;52.536;13.432;2022-07-18T07:57:57;25.40;34.30
21335;DHT22;10826;52.536;13.432;2022-07-18T08:00:23;25.40;33.70
21335;DHT22;10826;52.536;13.432;2022-07-18T08:03:00;25.40;33.70
21335;DHT22;10826;52.536;13.432;2022-07-18T08:05:30;25.50;33.70
21335;DHT22;10826;52.536;13.432;2022-07-18T08:07:58;25.50;33.70
21335;DHT22;10826;52.536;13.432;2022-07-18T08:10:27;25.50;33.80
21335;DHT22;10826;52.536;13.432;2022-07-18T08:12:54;25.60;33.90
21335;DHT22;10826;52.536;13.432;2022-07-18T08:15:20;25.60;33.60
21335;DHT22;10826;52.536;13.432;2022-07-18T08:17:46;25.70;33.50
21335;DHT22;10826;52.536;13.432;2022-07-18T08:20:13;25.70;33.50
21335;DHT22;10826;52.536;13.432;2022-07-18T08:23:00;25.80;33.30
21335;DHT22;10826;52.536;13.432;2022-07-18T08:25:29;25.90;32.60
21335;DHT22;10826;52.536;13.432;2022-07-18T08:27:58;26.00;33.30
21335;DHT22;10826;52.536;13.432;2022-07-18T08:30:25;26.10;33.30
21335;DHT22;10826;52.536;13.432;2022-07-18T08:32:52;26.20;33.70
21335;DHT22;10826;52.536;13.432;2022-07-18T08:35:18;26.30;32.60
21335;DHT22;10826;52.536;13.432;2022-07-18T08:37:45;26.40;32.50
21335;DHT22;10826;52.536;13.432;2022-07-18T08:40:11;26.60;32.50
21335;DHT22;10826;52.536;13.432;2022-07-18T08:42:37;26.70;32.00
21335;DHT22;10826;52.536;13.432;2022-07-18T08:45:04;26.70;31.50
21335;DHT22;10826;52.536;13.432;2022-07-18T08:47:31;26.80;31.50
21335;DHT22;10826;52.536;13.432;2022-07-18T08:49:59;26.90;31.30
21335;DHT22;10826;52.536;13.432;2022-07-18T08:52:27;26.90;30.50
21335;DHT22;10826;52.536;13.432;2022-07-18T08:54:57;26.90;30.40
21335;DHT22;10826;52.536;13.432;2022-07-18T08:57:23;26.90;30.60
21335;DHT22;10826;52.536;13.432;2022-07-18T08:59:50;26.80;30.70
21335;DHT22;10826;52.536;13.432;2022-07-18T09:02:16;26.80;30.40
21335;DHT22;10826;52.536;13.432;2022-07-18T09:04:43;26.80;30.40
21335;DHT22;10826;52.536;13.432;2022-07-18T09:07:23;26.80;29.90
21335;DHT22;10826;52.536;13.432;2022-07-18T09:09:58;26.80;29.70
21335;DHT22;10826;52.536;13.432;2022-07-18T09:12:27;26.80;29.40
21335;DHT22;10826;52.536;13.432;2022-07-18T09:14:57;26.80;28.60
21335;DHT22;10826;52.536;13.432;2022-07-18T09:17:28;26.80;29.00
21335;DHT22;10826;52.536;13.432;2022-07-18T09:20:13;26.80;29.30
21335;DHT22;10826;52.536;13.432;2022-07-18T09:22:46;26.80;29.60
21335;DHT22;10826;52.536;13.432;2022-07-18T09:25:17;26.90;29.80
21335;DHT22;10826;52.536;13.432;2022-07-18T09:27:54;26.90;30.00
21335;DHT22;10826;52.536;13.432;2022-07-18T09:30:33;26.90;30.30
21335;DHT22;10826;52.536;13.432;2022-07-18T09:35:37;27.00;30.80
21335;DHT22;10826;52.536;13.432;2022-07-18T09:38:18;27.00;30.70
21335;DHT22;10826;52.536;13.432;2022-07-18T09:40:53;27.00;30.90
21335;DHT22;10826;52.536;13.432;2022-07-18T09:43:22;27.10;31.00
21335;DHT22;10826;52.536;13.432;2022-07-18T09:45:54;27.20;30.70
21335;DHT22;10826;52.536;13.432;2022-07-18T09:48:23;27.30;30.90
21335;DHT22;10826;52.536;13.432;2022-07-18T09:53:20;27.50;30.90
21335;DHT22;10826;52.536;13.432;2022-07-18T09:55:57;27.50;30.70
21335;DHT22;10826;52.536;13.432;2022-07-18T10:01:05;27.70;30.20
21335;DHT22;10826;52.536;13.432;2022-07-18T10:03:33;27.70;29.90
21335;DHT22;10826;52.536;13.432;2022-07-18T10:06:01;27.80;29.00
21335;DHT22;10826;52.536;13.432;2022-07-18T10:08:30;27.80;28.90
21335;DHT22;10826;52.536;13.432;2022-07-18T10:10:59;27.80;28.60
21335;DHT22;10826;52.536;13.432;2022-07-18T10:13:28;27.90;28.70
21335;DHT22;10826;52.536;13.432;2022-07-18T10:15:56;27.90;29.20
21335;DHT22;10826;52.536;13.432;2022-07-18T10:18:27;27.90;29.80
21335;DHT22;10826;52.536;13.432;2022-07-18T10:20:58;28.00;30.10
21335;DHT22;10826;52.536;13.432;2022-07-18T10:23:44;28.00;30.30
21335;DHT22;10826;52.536;13.432;2022-07-18T10:26:27;28.10;29.30
21335;DHT22;10826;52.536;13.432;2022-07-18T10:31:30;28.10;29.00
21335;DHT22;10826;52.536;13.432;2022-07-18T10:36:37;28.30;29.00
21335;DHT22;10826;52.536;13.432;2022-07-18T10:39:54;28.40;28.90
21335;DHT22;10826;52.536;13.432;2022-07-18T10:42:21;28.60;28.70
21335;DHT22;10826;52.536;13.432;2022-07-18T10:44:50;28.60;28.10
21335;DHT22;10826;52.536;13.432;2022-07-18T10:47:18;28.70;27.50
21335;DHT22;10826;52.536;13.432;2022-07-18T10:57:29;29.10;28.20
21335;DHT22;10826;52.536;13.432;2022-07-18T11:02:38;29.20;28.30
21335;DHT22;10826;52.536;13.432;2022-07-18T11:16:12;29.20;27.90
21335;DHT22;10826;52.536;13.432;2022-07-18T11:21:29;29.10;27.60
21335;DHT22;10826;52.536;13.432;2022-07-18T11:24:09;29.20;26.90
21335;DHT22;10826;52.536;13.432;2022-07-18T11:26:39;29.20;26.80
21335;DHT22;10826;52.536;13.432;2022-07-18T11:29:11;29.10;26.50
21335;DHT22;10826;52.536;13.432;2022-07-18T11:31:50;29.10;27.00
21335;DHT22;10826;52.536;13.432;2022-07-18T11:34:19;29.10;26.60
21335;DHT22;10826;52.536;13.432;2022-07-18T11:36:47;29.00;26.70
21335;DHT22;10826;52.536;13.432;2022-07-18T11:39:16;29.00;26.80
21335;DHT22;10826;52.536;13.432;2022-07-18T11:41:54;29.00;27.20
21335;DHT22;10826;52.536;13.432;2022-07-18T11:44:20;28.90;27.00
21335;DHT22;10826;52.536;13.432;2022-07-18T11:47:02;28.90;26.90
21335;DHT22;10826;52.536;13.432;2022-07-18T11:49:30;29.00;27.30
21335;DHT22;10826;52.536;13.432;2022-07-18T11:51:56;28.90;27.10
21335;DHT22;10826;52.536;13.432;2022-07-18T11:54:23;28.90;27.30
21335;DHT22;10826;52.536;13.432;2022-07-18T11:56:53;28.90;26.90
21335;DHT22;10826;52.536;13.432;2022-07-18T11:59:20;28.90;26.40
21335;DHT22;10826;52.536;13.432;2022-07-18T12:01:47;28.90;27.00
21335;DHT22;10826;52.536;13.432;2022-07-18T12:04:22;28.90;27.20
21335;DHT22;10826;52.536;13.432;2022-07-18T12:07:26;29.00;27.10
21335;DHT22;10826;52.536;13.432;2022-07-18T12:09:52;29.00;27.10
21335;DHT22;10826;52.536;13.432;2022-07-18T12:12:21;29.00;26.80
21335;DHT22;10826;52.536;13.432;2022-07-18T12:15:01;29.00;27.50
21335;DHT22;10826;52.536;13.432;2022-07-18T12:17:30;29.00;27.20
21335;DHT22;10826;52.536;13.432;2022-07-18T12:20:12;29.00;27.00
21335;DHT22;10826;52.536;13.432;2022-07-18T12:23:03;29.10;27.00
21335;DHT22;10826;52.536;13.432;2022-07-18T12:25:55;29.20;27.00
21335;DHT22;10826;52.536;13.432;2022-07-18T12:28:25;29.20;27.30
21335;DHT22;10826;52.536;13.432;2022-07-18T12:30:51;29.20;27.40
21335;DHT22;10826;52.536;13.432;2022-07-18T12:33:17;29.20;27.40
21335;DHT22;10826;52.536;13.432;2022-07-18T12:35:43;29.40;27.40
21335;DHT22;10826;52.536;13.432;2022-07-18T12:38:16;29.40;27.50
21335;DHT22;10826;52.536;13.432;2022-07-18T12:40:58;29.50;27.40
21335;DHT22;10826;52.536;13.432;2022-07-18T12:46:08;29.60;27.50
21335;DHT22;10826;52.536;13.432;2022-07-18T12:48:36;29.70;27.40
21335;DHT22;10826;52.536;13.432;2022-07-18T12:51:08;29.70;26.70
21335;DHT22;10826;52.536;13.432;2022-07-18T12:53:38;29.80;26.90
21335;DHT22;10826;52.536;13.432;2022-07-18T12:56:09;29.90;26.50
21335;DHT22;10826;52.536;13.432;2022-07-18T12:58:35;30.00;25.90
21335;DHT22;10826;52.536;13.432;2022-07-18T13:01:01;30.10;26.00
21335;DHT22;10826;52.536;13.432;2022-07-18T13:03:27;30.10;26.00
21335;DHT22;10826;52.536;13.432;2022-07-18T13:05:53;30.30;26.10
21335;DHT22;10826;52.536;13.432;2022-07-18T13:08:19;30.30;26.10
21335;DHT22;10826;52.536;13.432;2022-07-18T13:10:45;30.40;26.20
21335;DHT22;10826;52.536;13.432;2022-07-18T13:13:12;30.40;26.30
21335;DHT22;10826;52.536;13.432;2022-07-18T13:15:38;30.40;26.40
21335;DHT22;10826;52.536;13.432;2022-07-18T13:18:05;30.40;26.40
21335;DHT22;10826;52.536;13.432;2022-07-18T13:20:31;30.40;26.50
21335;DHT22;10826;52.536;13.432;2022-07-18T13:22:58;30.40;26.60
21335;DHT22;10826;52.536;13.432;2022-07-18T13:25:27;30.50;26.70
21335;DHT22;10826;52.536;13.432;2022-07-18T13:27:53;30.40;26.20
21335;DHT22;10826;52.536;13.432;2022-07-18T13:30:19;30.40;26.20
21335;DHT22;10826;52.536;13.432;2022-07-18T13:32:45;30.40;26.40
21335;DHT22;10826;52.536;13.432;2022-07-18T13:35:13;30.40;26.50
21335;DHT22;10826;52.536;13.432;2022-07-18T13:37:40;30.30;26.50
21335;DHT22;10826;52.536;13.432;2022-07-18T13:40:07;30.30;26.60
21335;DHT22;10826;52.536;13.432;2022-07-18T13:42:35;30.30;26.70
21335;DHT22;10826;52.536;13.432;2022-07-18T13:45:03;30.30;26.50
21335;DHT22;10826;52.536;13.432;2022-07-18T13:47:29;30.30;26.70
21335;DHT22;10826;52.536;13.432;2022-07-18T13:49:55;30.30;26.30
21335;DHT22;10826;52.536;13.432;2022-07-18T13:52:21;30.30;26.30
21335;DHT22;10826;52.536;13.432;2022-07-18T13:54:47;30.30;26.40
21335;DHT22;10826;52.536;13.432;2022-07-18T13:57:14;30.30;26.10
21335;DHT22;10826;52.536;13.432;2022-07-18T13:59:40;30.30;26.20
21335;DHT22;10826;52.536;13.432;2022-07-18T14:02:06;30.30;26.10
21335;DHT22;10826;52.536;13.432;2022-07-18T14:04:32;30.30;26.20
21335;DHT22;10826;52.536;13.432;2022-07-18T14:06:58;30.30;26.40
21335;DHT22;10826;52.536;13.432;2022-07-18T14:09:24;30.30;26.40
21335;DHT22;10826;52.536;13.432;2022-07-18T14:11:50;30.30;26.50
21335;DHT22;10826;52.536;13.432;2022-07-18T14:14:16;30.30;26.60
21335;DHT22;10826;52.536;13.432;2022-07-18T14:16:41;30.40;26.50
21335;DHT22;10826;52.536;13.432;2022-07-18T14:19:07;30.40;26.60
21335;DHT22;10826;52.536;13.432;2022-07-18T14:21:33;30.40;26.60
21335;DHT22;10826;52.536;13.432;2022-07-18T14:23:59;30.40;26.10
21335;DHT22;10826;52.536;13.432;2022-07-18T14:26:25;30.40;26.00
21335;DHT22;10826;52.536;13.432;2022-07-18T14:28:52;30.40;26.30
21335;DHT22;10826;52.536;13.432;2022-07-18T14:31:18;30.40;25.60
21335;DHT22;10826;52.536;13.432;2022-07-18T14:33:44;30.40;26.00
21335;DHT22;10826;52.536;13.432;2022-07-18T14:36:10;30.30;25.40
21335;DHT22;10826;52.536;13.432;2022-07-18T14:38:37;30.30;25.70
21335;DHT22;10826;52.536;13.432;2022-07-18T14:41:03;30.30;26.10
21335;DHT22;10826;52.536;13.432;2022-07-18T14:43:29;30.20;25.90
21335;DHT22;10826;52.536;13.432;2022-07-18T14:45:55;30.20;25.80
21335;DHT22;10826;52.536;13.432;2022-07-18T14:48:22;30.20;26.00
21335;DHT22;10826;52.536;13.432;2022-07-18T14:50:48;30.20;26.10
21335;DHT22;10826;52.536;13.432;2022-07-18T14:53:15;30.10;25.80
21335;DHT22;10826;52.536;13.432;2022-07-18T14:55:41;30.10;25.50
21335;DHT22;10826;52.536;13.432;2022-07-18T14:58:06;30.20;25.70
21335;DHT22;10826;52.536;13.432;2022-07-18T15:00:34;30.20;26.00
21335;DHT22;10826;52.536;13.432;2022-07-18T15:03:00;30.20;26.20
21335;DHT22;10826;52.536;13.432;2022-07-18T15:05:26;30.20;26.30
21335;DHT22;10826;52.536;13.432;2022-07-18T15:07:52;30.20;26.40
21335;DHT22;10826;52.536;13.432;2022-07-18T15:10:19;30.10;26.50
21335;DHT22;10826;52.536;13.432;2022-07-18T15:12:45;30.20;26.50
21335;DHT22;10826;52.536;13.432;2022-07-18T15:15:11;30.10;26.60
21335;DHT22;10826;52.536;13.432;2022-07-18T15:17:37;30.10;26.70
21335;DHT22;10826;52.536;13.432;2022-07-18T15:20:04;30.10;26.70
21335;DHT22;10826;52.536;13.432;2022-07-18T15:22:32;30.10;26.70
21335;DHT22;10826;52.536;13.432;2022-07-18T15:24:58;30.00;26.90
21335;DHT22;10826;52.536;13.432;2022-07-18T15:27:24;29.90;26.50
21335;DHT22;10826;52.536;13.432;2022-07-18T15:29:50;29.90;26.50
21335;DHT22;10826;52.536;13.432;2022-07-18T15:32:15;29.90;26.50
21335;DHT22;10826;52.536;13.432;2022-07-18T15:34:42;29.90;26.60
21335;DHT22;10826;52.536;13.432;2022-07-18T15:37:08;29.90;26.40
21335;DHT22;10826;52.536;13.432;2022-07-18T15:39:34;29.90;26.50
21335;DHT22;10826;52.536;13.432;2022-07-18T15:42:00;29.90;26.10
21335;DHT22;10826;52.536;13.432;2022-07-18T15:44:26;29.90;25.50
21335;DHT22;10826;52.536;13.432;2022-07-18T15:46:52;29.90;25.90
21335;DHT22;10826;52.536;13.432;2022-07-18T15:49:18;30.00;26.50
21335;DHT22;10826;52.536;13.432;2022-07-18T15:51:44;30.00;26.60
21335;DHT22;10826;52.536;13.432;2022-07-18T15:54:14;30.00;26.70
21335;DHT22;10826;52.536;13.432;2022-07-18T15:56:42;30.10;26.70
21335;DHT22;10826;52.536;13.432;2022-07-18T15:59:08;30.10;26.60